Terminal Aerodrome Forecast
Issued by NWS Charleston, WV

Current Version | Previous Version | Graphics & Text | Print | Product List | Glossary On
Versions: 1 2 3 4 5 6 7 8 9 10 11 12 13 14 15 16 17 18 19 20 21 22 23 24 25 26 27 28 29
193
FTUS41 KRLX 070056 AAA
TAFCRW
TAF AMD
KCRW 070056Z 0701/0724 19005KT 6SM -RA BR OVC011
      TEMPO 0701/0702 BKN006
     FM070300 27008G15KT P6SM -RA OVC012
     FM070500 28007KT P6SM BKN011
     FM071600 VRB03KT P6SM BKN060=

USA.gov is the U.S. government's official web portal to all federal, state and local government web resources and services.